Nyota — 9H9319 — position and weather

sailwx.info

Track history (hours):
 
Tides and Currents Weather Stations Pressure Air Temp Water Temp Dewpoint Dewpoint Depression Visibility Wind Speed Wind Dir Waves Ship Positions

Nyota

Last reported at 2017-Sep-12 17:11 UTC. Time now 2017-Sep-21 01:40 UTC.
Position N 43°50' E 007°54'.
Warning: this ship's position is 8 days out of date.

Length 37 m; draft 2.5 m.

Type: Pleasure craft. MMSI: 249328000.

Date/timePositionNaut miles runAvg speedWind from/ knotsBaromVisibWave heightAir tempDewpointWater temp
2017-Sep-12 17:11N 43°50' E 007°54'0 0.0
2017-Sep-12 16:38N 43°50' E 007°54'0 0.0
2017-Sep-12 16:17N 43°50' E 007°54'0 0.0
2017-Sep-12 15:56N 43°50' E 007°54'  
2017-Sep-05 18:33N 40°41' E 014°14'114.1
2017-Sep-05 18:28N 40°41' E 014°15'6 0.5
2017-Sep-05 06:41N 40°40' E 014°24'314.2
2017-Sep-05 06:30N 40°39' E 014°21'14914.1
2017-Sep-04 19:53N 38°23' E 015°41'513.7
2017-Sep-04 19:30N 38°18' E 015°43'511.1
2017-Sep-04 19:00N 38°15' E 015°38'713.2
2017-Sep-04 18:30N 38°08' E 015°36'815.0
2017-Sep-04 17:59N 38°00' E 015°37'  
Track history (hours):
 
Tides and Currents Weather Stations Pressure Air Temp Water Temp Dewpoint Dewpoint Depression Visibility Wind Speed Wind Dir Waves Ship Positions

Nyota

Last reported at 2017-Sep-12 17:11 UTC. Time now 2017-Sep-21 01:40 UTC.
Position N 43°50' E 007°54'.
Warning: this ship's position is 8 days out of date.

Length 37 m; draft 2.5 m.

Type: Pleasure craft. MMSI: 249328000.

Date/timePositionNaut miles runAvg speedWind from/ knotsBaromVisibWave heightAir tempDewpointWater temp
2017-Sep-12 17:11N 43°50' E 007°54'0 0.0
2017-Sep-12 16:38N 43°50' E 007°54'0 0.0
2017-Sep-12 16:17N 43°50' E 007°54'0 0.0
2017-Sep-12 15:56N 43°50' E 007°54'  
2017-Sep-05 18:33N 40°41' E 014°14'114.1
2017-Sep-05 18:28N 40°41' E 014°15'6 0.5
2017-Sep-05 06:41N 40°40' E 014°24'314.2
2017-Sep-05 06:30N 40°39' E 014°21'14914.1
2017-Sep-04 19:53N 38°23' E 015°41'513.7
2017-Sep-04 19:30N 38°18' E 015°43'511.1
2017-Sep-04 19:00N 38°15' E 015°38'713.2
2017-Sep-04 18:30N 38°08' E 015°36'815.0
2017-Sep-04 17:59N 38°00' E 015°37'  

Dump ship's entire track history